Аэропорт: Усть-Каменогорск. Усть-Каменогорск

ICAO: UASK

METAR:
2020-06-02 07:30:00
UASK 020730Z 34003MPS 260V050 9999 SCT033CB 30/13 Q1007 R12/090060 TEMPO -TSRA SCT025CB RMK QFE730/0974
METAR:
Информация по данной станции не доступна